Time;durP1;ratioP1;P1;durP2;ratioP2;P2;SDS_P1;SDS_P2;PMS_P1;PMS_P2;Temp;Humidity;BMP_temperature;BMP_pressure;BME280_temperature;BME280_humidity;BME280_pressure;Samples;Min_cycle;Max_cycle;Signal;HPM_P1;HPM_P2
2023/10/20 00:01:20;;;;;;;23.90;21.50;;;;;;;14.04;100.00;98400.66;5091685;28;20035;-63
2023/10/20 00:03:46;;;;;;;23.55;21.48;;;;;;;14.04;100.00;98400.66;5092358;28;20027;-63
2023/10/20 00:06:11;;;;;;;23.88;21.63;;;;;;;14.07;100.00;98418.19;5074116;28;20062;-63
2023/10/20 00:08:37;;;;;;;25.27;22.65;;;;;;;14.07;100.00;98415.50;5092518;28;20020;-63
2023/10/20 00:11:05;;;;;;;24.77;22.25;;;;;;;14.05;100.00;98406.84;5091595;28;20020;-63
2023/10/20 00:13:32;;;;;;;23.63;21.15;;;;;;;14.07;100.00;98402.97;5092577;28;20028;-63
2023/10/20 00:16:00;;;;;;;22.75;20.55;;;;;;;14.07;100.00;98389.63;5090443;28;20020;-63
2023/10/20 00:18:26;;;;;;;24.30;21.88;;;;;;;14.04;100.00;98387.31;5091930;28;20054;-63
2023/10/20 00:20:54;;;;;;;23.42;21.23;;;;;;;14.05;100.00;98388.13;5090878;28;20051;-63
2023/10/20 00:23:22;;;;;;;22.83;20.73;;;;;;;14.03;100.00;98380.31;5088664;28;20487;-63
2023/10/20 00:25:47;;;;;;;24.15;21.75;;;;;;;14.07;100.00;98378.09;5110252;28;20423;-63
2023/10/20 00:28:12;;;;;;;23.70;21.35;;;;;;;14.03;100.00;98371.44;5069827;28;20030;-62
2023/10/20 00:30:41;;;;;;;24.77;21.88;;;;;;;14.05;100.00;98366.75;5072303;28;20024;-62
2023/10/20 00:33:07;;;;;;;24.55;22.25;;;;;;;14.05;100.00;98356.88;5071788;28;20035;-62
2023/10/20 00:35:32;;;;;;;23.33;21.05;;;;;;;13.99;100.00;98343.41;5060577;28;20028;-62
2023/10/20 00:37:58;;;;;;;23.77;21.58;;;;;;;14.02;100.00;98343.06;5072103;28;20524;-62
2023/10/20 00:40:24;;;;;;;25.08;22.45;;;;;;;13.97;100.00;98324.91;5076036;28;20085;-62
2023/10/20 00:42:49;;;;;;;23.85;21.55;;;;;;;13.99;100.00;98322.03;5057030;28;20036;-62
2023/10/20 00:45:15;;;;;;;24.80;22.42;;;;;;;13.90;100.00;98305.25;5082206;28;20089;-62
2023/10/20 00:47:43;;;;;;;24.65;22.35;;;;;;;13.97;100.00;98316.03;5075557;28;20032;-62
2023/10/20 00:50:11;;;;;;;24.90;22.17;;;;;;;13.96;100.00;98309.84;5078688;28;20035;-62
2023/10/20 00:52:37;;;;;;;24.73;22.38;;;;;;;13.93;100.00;98298.72;5089494;28;20020;-62
2023/10/20 00:55:07;;;;;;;24.42;21.92;;;;;;;13.99;100.00;98308.66;5091217;28;20028;-62
2023/10/20 00:57:33;;;;;;;25.20;22.38;;;;;;;13.94;100.00;98284.31;5107941;28;20529;-62
2023/10/20 00:59:59;;;;;;;24.27;21.83;;;;;;;14.01;100.00;98298.63;5093411;28;20059;-62
2023/10/20 01:02:24;;;;;;;24.20;21.90;;;;;;;13.98;100.00;98282.97;5089807;28;20056;-62
2023/10/20 01:04:50;;;;;;;25.67;22.98;;;;;;;13.98;100.00;98285.63;5090986;28;20052;-62
2023/10/20 01:07:15;;;;;;;24.85;22.30;;;;;;;13.93;100.00;98280.81;5091456;28;20024;-62
2023/10/20 01:09:42;;;;;;;25.70;23.20;;;;;;;13.96;100.00;98282.31;5091293;28;20016;-62
2023/10/20 01:12:08;;;;;;;25.25;22.65;;;;;;;13.93;100.00;98270.13;5091657;28;20020;-62
2023/10/20 01:14:35;;;;;;;18.75;12.27;;;;;;;14.01;100.00;98275.41;5110561;28;20027;-62
2023/10/20 01:17:01;;;;;;;25.58;23.17;;;;;;;13.92;100.00;98265.81;5116225;28;20098;-63
2023/10/20 01:19:27;;;;;;;26.67;24.08;;;;;;;13.97;100.00;98254.56;5082571;28;20038;-63
2023/10/20 01:21:52;;;;;;;27.60;24.90;;;;;;;13.93;100.00;98247.94;5093273;28;20031;-62
2023/10/20 01:24:17;;;;;;;29.40;25.23;;;;;;;13.95;100.00;98252.09;5090530;28;20024;-62
2023/10/20 01:26:43;;;;;;;26.50;24.00;;;;;;;13.96;100.00;98242.22;5093335;28;20024;-63
2023/10/20 01:29:12;;;;;;;28.55;24.02;;;;;;;13.92;100.00;98238.28;5061457;28;20020;-62
2023/10/20 01:31:38;;;;;;;27.02;24.13;;;;;;;13.91;100.00;98228.56;5057256;28;20016;-63
2023/10/20 01:34:05;;;;;;;26.38;24.08;;;;;;;13.96;100.00;98235.03;5082543;28;20040;-63
2023/10/20 01:36:30;;;;;;;27.05;24.58;;;;;;;13.92;100.00;98236.44;5086943;28;20081;-62
2023/10/20 01:38:56;;;;;;;27.42;24.90;;;;;;;13.89;100.00;98231.44;5076938;28;20020;-62
2023/10/20 01:41:22;;;;;;;27.13;24.52;;;;;;;13.92;100.00;98236.44;5094477;28;20490;-62
2023/10/20 01:43:48;;;;;;;27.88;25.27;;;;;;;13.90;100.00;98232.28;5094838;28;20067;-63
2023/10/20 01:46:13;;;;;;;26.52;23.98;;;;;;;13.91;100.00;98234.75;5093069;28;20035;-62
2023/10/20 01:48:38;;;;;;;28.80;25.08;;;;;;;13.90;100.00;98219.75;5109449;28;20016;-62
2023/10/20 01:51:06;;;;;;;26.80;24.23;;;;;;;13.91;100.00;98232.06;5075761;28;20051;-62
2023/10/20 01:53:32;;;;;;;29.02;25.02;;;;;;;13.85;100.00;98214.97;5062073;28;20031;-62
2023/10/20 01:55:57;;;;;;;28.55;25.75;;;;;;;13.91;100.00;98228.56;5090087;28;20410;-62
2023/10/20 01:58:25;;;;;;;26.25;23.77;;;;;;;13.89;100.00;98222.59;5094577;28;20032;-62
2023/10/20 02:00:51;;;;;;;26.38;23.77;;;;;;;13.82;100.00;98204.63;5094314;28;20107;-63
2023/10/20 02:03:17;;;;;;;27.30;24.67;;;;;;;13.88;100.00;98200.38;5092712;28;20035;-63
2023/10/20 02:05:43;;;;;;;27.98;25.10;;;;;;;13.86;100.00;98186.38;5092125;28;20040;-63
2023/10/20 02:08:08;;;;;;;28.27;25.50;;;;;;;13.87;100.00;98182.69;5094238;28;20024;-62
2023/10/20 02:10:35;;;;;;;29.95;26.95;;;;;;;13.88;100.00;98178.19;5094489;28;20036;-62
2023/10/20 02:13:00;;;;;;;27.83;25.13;;;;;;;13.88;100.00;98179.00;5094497;28;20111;-62
2023/10/20 02:15:26;;;;;;;29.27;26.20;;;;;;;13.92;100.00;98176.81;5076269;28;20099;-63
2023/10/20 02:17:51;;;;;;;28.02;25.23;;;;;;;13.88;100.00;98178.19;5094534;28;20445;-63
2023/10/20 02:20:20;;;;;;;28.92;25.92;;;;;;;13.90;100.00;98174.31;5075186;28;20028;-62
2023/10/20 02:22:55;;;;;;;29.52;26.42;;;;;;;13.90;100.00;98176.97;5094738;28;20031;-63
2023/10/20 02:25:21;;;;;;;28.73;25.92;;;;;;;13.88;100.00;98167.50;5091189;28;20035;-62
2023/10/20 02:27:47;;;;;;;31.02;28.08;;;;;;;13.86;100.00;98162.34;5090303;28;20391;-62
2023/10/20 02:30:15;;;;;;;30.25;27.38;;;;;;;13.89;100.00;98153.13;5059572;28;20020;-63
2023/10/20 02:32:41;;;;;;;30.27;27.42;;;;;;;13.91;100.00;98143.06;5078169;28;20052;-63
2023/10/20 02:35:11;;;;;;;29.60;26.67;;;;;;;13.90;100.00;98139.56;5075782;28;20023;-63
2023/10/20 02:37:36;;;;;;;;;;;;;;;14.02;100.00;98126.56;5087036;28;20085;-62
2023/10/20 02:40:05;;;;;;;29.50;26.40;;;;;;;13.92;100.00;98124.19;5077142;28;19912;-63
2023/10/20 02:42:36;;;;;;;30.38;27.50;;;;;;;13.94;100.00;98124.00;5074133;28;20383;-63
2023/10/20 02:45:09;;;;;;;29.05;26.30;;;;;;;13.93;100.00;98125.03;5076753;28;20036;-63
2023/10/20 02:47:34;;;;;;;30.95;27.85;;;;;;;13.94;100.00;98121.31;5092887;28;20032;-63
2023/10/20 02:49:59;;;;;;;30.05;27.05;;;;;;;13.93;100.00;98115.16;5074758;28;20031;-63
2023/10/20 02:52:25;;;;;;;30.60;27.58;;;;;;;13.86;100.00;98084.88;5091099;28;20020;-63
2023/10/20 02:54:53;;;;;;;29.85;27.05;;;;;;;13.90;100.00;98096.00;5054636;28;20039;-63
2023/10/20 02:57:20;;;;;;;30.33;27.13;;;;;;;13.85;100.00;98091.19;5073711;28;20056;-62
2023/10/20 02:59:47;;;;;;;31.15;28.25;;;;;;;13.89;100.00;98089.00;5076731;28;20037;-63
2023/10/20 03:02:16;;;;;;;29.73;27.00;;;;;;;13.88;100.00;98080.16;5084060;28;20020;-62
2023/10/20 03:04:41;;;;;;;30.15;27.35;;;;;;;13.92;100.00;98081.44;5061998;28;20491;-63
2023/10/20 03:07:08;;;;;;;30.77;27.60;;;;;;;13.91;100.00;98057.56;5089405;28;20034;-63
2023/10/20 03:09:34;;;;;;;29.92;26.92;;;;;;;13.95;100.00;98053.53;5073356;28;20052;-63
2023/10/20 03:11:59;;;;;;;28.92;26.13;;;;;;;13.92;100.00;98051.22;5086345;28;20476;-63
2023/10/20 03:14:24;;;;;;;28.75;26.05;;;;;;;13.93;100.00;98053.69;5068376;28;20086;-63
2023/10/20 03:16:50;;;;;;;29.25;26.40;;;;;;;13.93;100.00;98050.19;5072757;28;20020;-62
2023/10/20 03:19:15;;;;;;;28.05;25.38;;;;;;;13.94;100.00;98063.38;5073208;28;20020;-62
2023/10/20 03:21:41;;;;;;;26.75;24.13;;;;;;;13.94;100.00;98055.38;5076354;28;20020;-63
2023/10/20 03:24:06;;;;;;;28.02;25.20;;;;;;;13.97;100.00;98059.50;5072840;28;20024;-63
2023/10/20 03:26:32;;;;;;;29.02;24.40;;;;;;;13.97;100.00;98052.31;5062277;28;20023;-63
2023/10/20 03:28:59;;;;;;;26.15;23.58;;;;;;;13.97;100.00;98044.31;5089996;28;20077;-62
2023/10/20 03:31:25;;;;;;;27.02;24.35;;;;;;;13.92;100.00;98032.53;5061621;28;20055;-63
2023/10/20 03:33:50;;;;;;;27.08;24.45;;;;;;;13.94;100.00;98019.78;5085549;28;20048;-63
2023/10/20 03:36:16;;;;;;;26.63;24.02;;;;;;;13.96;100.00;98021.25;5084294;28;20028;-62
2023/10/20 03:38:42;;;;;;;21.85;13.80;;;;;;;14.01;100.00;98015.38;5086808;28;20051;-63
2023/10/20 03:41:11;;;;;;;26.70;24.10;;;;;;;13.97;100.00;98022.06;5076428;28;20025;-63
2023/10/20 03:43:37;;;;;;;27.65;24.73;;;;;;;13.95;100.00;98021.47;5079907;28;20027;-63
2023/10/20 03:46:04;;;;;;;26.10;23.65;;;;;;;13.96;100.00;98025.78;5087984;28;20475;-63
2023/10/20 03:48:29;;;;;;;27.70;25.00;;;;;;;13.91;100.00;98012.16;5070523;28;20486;-63
2023/10/20 03:50:58;;;;;;;25.98;23.48;;;;;;;13.94;100.00;98017.97;5066004;28;20032;-63
2023/10/20 03:53:27;;;;;;;26.00;23.48;;;;;;;13.93;100.00;98008.28;5072320;28;20103;-63
2023/10/20 03:56:00;;;;;;;18.75;12.85;;;;;;;13.95;100.00;97982.19;5092418;28;20024;-63
2023/10/20 03:58:28;;;;;;;26.75;24.05;;;;;;;13.92;100.00;97990.59;5057034;28;20040;-63
2023/10/20 04:00:55;;;;;;;27.52;24.30;;;;;;;13.89;100.00;97993.66;5090211;28;20032;-63
2023/10/20 04:03:20;;;;;;;27.02;24.13;;;;;;;13.88;100.00;97991.97;5079981;28;20028;-63
2023/10/20 04:05:45;;;;;;;28.58;25.63;;;;;;;13.88;100.00;97988.47;5112053;28;20039;-62
2023/10/20 04:08:11;;;;;;;27.63;24.83;;;;;;;13.85;100.00;97990.53;5097062;28;20052;-63
2023/10/20 04:10:41;;;;;;;28.42;25.50;;;;;;;13.85;100.00;97982.53;5090986;28;20030;-63
2023/10/20 04:13:07;;;;;;;27.92;24.85;;;;;;;13.86;100.00;97960.13;5090436;28;20108;-63
2023/10/20 04:15:36;;;;;;;28.80;26.00;;;;;;;13.80;100.00;97952.03;5079606;28;20028;-63
2023/10/20 04:18:03;;;;;;;31.20;25.77;;;;;;;13.82;100.00;97956.19;5087446;28;20112;-63
2023/10/20 04:20:29;;;;;;;28.48;24.42;;;;;;;13.77;100.00;97939.06;5076588;28;21717;-63
2023/10/20 04:22:54;;;;;;;28.27;24.95;;;;;;;13.80;100.00;97942.16;5081575;28;20032;-62
2023/10/20 04:25:23;;;;;;;27.63;24.77;;;;;;;13.76;100.00;97926.69;5054046;28;20043;-62
2023/10/20 04:45:42;;;;;;;30.90;27.73;;;;;;;13.81;100.00;97910.94;5068988;28;20086;-63
2023/10/20 04:54:58;;;;;;;30.92;27.60;;;;;;;13.76;100.00;97867.94;5072261;28;20097;-63
2023/10/20 05:00:36;;;;;;;29.52;26.50;;;;;;;13.78;100.00;97861.38;5074122;28;20487;-62
2023/10/20 05:02:57;;;;;;;30.00;26.85;;;;;;;13.76;100.00;97854.56;5072642;28;20469;-63
2023/10/20 05:10:36;;;;;;;32.92;29.52;;;;;;;13.69;100.00;97830.47;5084436;28;20100;-63
2023/10/20 05:13:01;;;;;;;29.30;26.30;;;;;;;13.68;100.00;97828.00;5081395;28;20028;-63
2023/10/20 05:15:31;;;;;;;31.70;27.35;;;;;;;13.69;100.00;97838.50;5073641;28;20035;-62
2023/10/20 05:17:57;;;;;;;;;;;;;;;13.77;100.00;97838.38;5076003;28;20056;-63
2023/10/20 05:20:23;;;;;;;31.50;28.25;;;;;;;13.68;100.00;97820.81;5082512;28;19912;-63
2023/10/20 05:22:49;;;;;;;33.22;29.08;;;;;;;13.68;100.00;97803.94;5057535;28;20032;-62
2023/10/20 05:25:15;;;;;;;32.67;29.52;;;;;;;13.68;100.00;97811.97;5071683;28;20116;-62
2023/10/20 05:27:42;;;;;;;34.03;30.10;;;;;;;13.70;100.00;97807.25;5062961;28;20034;-63
2023/10/20 05:30:08;;;;;;;33.15;29.77;;;;;;;13.71;100.00;97808.94;5093867;28;20024;-62
2023/10/20 05:32:34;;;;;;;34.10;30.73;;;;;;;13.59;100.00;97803.28;5091526;28;20027;-62
2023/10/20 05:35:01;;;;;;;33.28;29.80;;;;;;;13.68;100.00;97820.81;5089434;28;20028;-63
2023/10/20 05:37:27;;;;;;;35.42;31.58;;;;;;;13.73;100.00;97823.72;5073106;28;20020;-63
2023/10/20 05:39:53;;;;;;;35.78;32.17;;;;;;;13.69;100.00;97824.31;5090577;28;20028;-63
2023/10/20 05:42:18;;;;;;;35.97;32.20;;;;;;;13.76;100.00;97835.88;5071863;28;20020;-63
2023/10/20 05:45:02;;;;;;;34.63;31.08;;;;;;;13.73;100.00;97821.06;5091087;28;20085;-63
2023/10/20 05:47:31;;;;;;;34.45;31.15;;;;;;;13.76;100.00;97814.50;5091288;28;20541;-63
2023/10/20 05:49:57;;;;;;;37.40;33.60;;;;;;;13.75;100.00;97818.22;5090434;28;20024;-62
2023/10/20 05:52:23;;;;;;;37.30;33.70;;;;;;;13.74;100.00;97812.03;5091091;28;20020;-62
2023/10/20 05:54:49;;;;;;;37.63;33.78;;;;;;;13.57;100.00;97790.09;5091119;28;20387;-63
2023/10/20 05:57:15;;;;;;;37.92;34.28;;;;;;;13.73;100.00;97801.53;5090705;28;20060;-62
2023/10/20 05:59:43;;;;;;;39.53;35.53;;;;;;;13.69;100.00;97792.28;5092192;28;20115;-62
2023/10/20 06:02:08;;;;;;;39.85;36.05;;;;;;;13.69;100.00;97786.94;5074846;28;20107;-61
2023/10/20 06:04:34;;;;;;;44.90;40.42;;;;;;;13.73;100.00;97799.69;5093090;28;20123;-62
2023/10/20 06:07:01;;;;;;;48.15;43.30;;;;;;;13.73;100.00;97801.53;5092850;28;20039;-62
2023/10/20 06:09:27;;;;;;;50.25;45.13;;;;;;;13.70;100.00;97789.38;5059358;28;20074;-62
2023/10/20 06:11:55;;;;;;;43.67;39.13;;;;;;;13.71;100.00;97784.91;5080645;28;20028;-62
2023/10/20 06:14:23;;;;;;;40.55;36.63;;;;;;;13.69;100.00;97781.59;5074877;28;20016;-63
2023/10/20 06:16:49;;;;;;;30.50;19.80;;;;;;;13.74;100.00;97800.53;5070232;28;20550;-62
2023/10/20 06:19:15;;;;;;;37.20;33.60;;;;;;;13.69;100.00;97810.97;5087733;28;20048;-62
2023/10/20 06:21:42;;;;;;;41.20;37.15;;;;;;;13.73;100.00;97812.22;5071575;28;20103;-62
2023/10/20 06:24:13;;;;;;;41.35;37.20;;;;;;;13.69;100.00;97801.09;5074051;28;20025;-62
2023/10/20 06:26:41;;;;;;;35.50;32.03;;;;;;;13.64;100.00;97769.63;5073925;28;20027;-62
2023/10/20 06:29:26;;;;;;;32.75;29.50;;;;;;;13.67;100.00;97776.41;5055906;28;20016;-63
2023/10/20 06:34:41;;;;;;;35.08;31.70;;;;;;;13.68;100.00;97782.59;5076450;28;20510;-62
2023/10/20 06:37:08;;;;;;;32.60;29.50;;;;;;;13.69;100.00;97795.75;5107741;28;20470;-62
2023/10/20 06:39:35;;;;;;;31.42;28.40;;;;;;;13.70;100.00;97800.06;5090920;28;20063;-62
2023/10/20 06:42:00;;;;;;;32.33;28.90;;;;;;;13.73;100.00;97806.88;5088749;28;20025;-63
2023/10/20 06:44:26;;;;;;;31.35;28.40;;;;;;;13.71;100.00;97798.25;5085706;28;20082;-62
2023/10/20 06:46:54;;;;;;;34.42;30.88;;;;;;;13.67;100.00;97780.94;5089334;28;20044;-62
2023/10/20 06:49:20;;;;;;;32.20;29.00;;;;;;;13.71;100.00;97784.91;5090179;28;20048;-62
2023/10/20 06:51:46;;;;;;;32.28;29.27;;;;;;;13.68;100.00;97772.75;5065840;28;20016;-62
2023/10/20 06:54:12;;;;;;;34.00;30.40;;;;;;;13.64;100.00;97777.63;5086231;28;20035;-62
2023/10/20 06:56:38;;;;;;;33.72;30.52;;;;;;;13.68;100.00;97775.44;5093045;28;20024;-62
2023/10/20 06:59:05;;;;;;;34.67;31.27;;;;;;;13.69;100.00;97777.06;5093050;28;20418;-62
2023/10/20 07:01:35;;;;;;;35.13;31.83;;;;;;;13.71;100.00;97774.22;5092605;28;20056;-62
2023/10/20 07:04:02;;;;;;;33.50;30.10;;;;;;;13.67;100.00;97770.25;5073835;28;20522;-62
2023/10/20 07:06:28;;;;;;;33.58;30.10;;;;;;;13.63;100.00;97772.50;5090144;28;20063;-63
2023/10/20 07:08:56;;;;;;;33.80;30.70;;;;;;;13.68;100.00;97780.75;5092913;28;20043;-62
2023/10/20 07:11:24;;;;;;;33.13;29.88;;;;;;;13.64;100.00;97768.78;5089269;28;20088;-62
2023/10/20 07:13:50;;;;;;;30.70;28.00;;;;;;;13.65;100.00;97773.13;5072836;28;20442;-62
2023/10/20 07:16:17;;;;;;;32.80;29.52;;;;;;;13.59;100.00;97760.56;5068953;28;20070;-62
2023/10/20 07:18:43;;;;;;;22.50;16.02;;;;;;;13.64;100.00;97766.13;5091800;28;20364;-62
2023/10/20 07:21:08;;;;;;;32.00;29.15;;;;;;;13.61;100.00;97766.50;5082434;28;20061;-62
2023/10/20 07:23:34;;;;;;;31.35;28.48;;;;;;;13.62;100.00;97769.00;5072802;28;20027;-63
2023/10/20 07:26:00;;;;;;;30.80;28.00;;;;;;;13.56;100.00;97764.44;5092365;28;20024;-62
2023/10/20 07:28:25;;;;;;;34.28;31.13;;;;;;;13.61;100.00;97762.00;5092794;28;20132;-62
2023/10/20 07:30:53;;;;;;;34.45;31.35;;;;;;;13.64;100.00;97761.59;5092138;28;20024;-62
2023/10/20 07:33:19;;;;;;;65.57;48.20;;;;;;;13.65;100.00;97765.13;5092298;28;20043;-63
2023/10/20 07:35:45;;;;;;;53.83;42.20;;;;;;;13.68;100.00;97762.06;5092287;28;20020;-62
2023/10/20 07:38:12;;;;;;;30.08;27.48;;;;;;;13.68;100.00;97762.06;5092817;28;20093;-63
2023/10/20 07:40:37;;;;;;;28.40;25.67;;;;;;;13.64;100.00;97755.44;5092744;28;20100;-62
2023/10/20 07:43:06;;;;;;;28.55;26.05;;;;;;;13.67;100.00;97751.56;5090999;28;20028;-63
2023/10/20 07:45:37;;;;;;;29.48;26.65;;;;;;;13.70;100.00;97752.00;5069825;28;20365;-63
2023/10/20 07:48:05;;;;;;;28.73;26.00;;;;;;;13.69;100.00;97750.34;5072808;28;20491;-62
2023/10/20 07:50:31;;;;;;;28.67;26.02;;;;;;;13.70;100.00;97746.66;5071971;28;20035;-62
2023/10/20 07:52:56;;;;;;;29.42;26.92;;;;;;;13.68;100.00;97734.50;5072609;28;20399;-62
2023/10/20 07:55:22;;;;;;;28.20;25.48;;;;;;;13.68;100.00;97732.69;5072047;28;20445;-62
2023/10/20 07:57:47;;;;;;;25.50;23.23;;;;;;;13.67;100.00;97728.34;5083847;28;20032;-62
2023/10/20 08:00:13;;;;;;;26.20;23.90;;;;;;;13.66;100.00;97725.88;5092346;28;20020;-62
2023/10/20 08:02:39;;;;;;;24.45;22.40;;;;;;;13.61;100.00;97700.56;5090666;28;20024;-62
2023/10/20 08:05:05;;;;;;;26.35;24.05;;;;;;;13.68;100.00;97714.00;5091679;28;20051;-62
2023/10/20 08:07:31;;;;;;;24.92;22.60;;;;;;;13.63;100.00;97711.06;5072788;28;20448;-63
2023/10/20 08:09:56;;;;;;;23.50;21.42;;;;;;;13.68;100.00;97714.00;5074021;28;20102;-62
2023/10/20 08:12:22;;;;;;;15.68;11.73;;;;;;;13.71;100.00;97718.94;5092327;28;20486;-62
2023/10/20 08:14:48;;;;;;;21.77;19.88;;;;;;;13.68;100.00;97722.00;5092261;28;20026;-62
2023/10/20 08:17:14;;;;;;;21.27;19.42;;;;;;;13.64;100.00;97721.53;5092204;28;20028;-62
2023/10/20 08:19:44;;;;;;;20.40;18.60;;;;;;;13.65;100.00;97733.09;5073098;28;20055;-63
2023/10/20 08:22:12;;;;;;;17.75;16.25;;;;;;;13.62;100.00;97725.47;5071523;28;20026;-63
2023/10/20 08:24:37;;;;;;;16.83;15.23;;;;;;;13.56;100.00;97708.34;5074052;28;20028;-62
2023/10/20 08:27:05;;;;;;;16.10;14.60;;;;;;;13.60;100.00;97727.47;5090955;28;20080;-62
2023/10/20 08:29:31;;;;;;;15.52;14.07;;;;;;;13.59;100.00;97726.66;5071826;28;20023;-62
2023/10/20 08:31:59;;;;;;;16.52;15.02;;;;;;;13.55;100.00;97729.91;5091196;28;20039;-62
2023/10/20 08:34:24;;;;;;;15.05;13.65;;;;;;;13.56;100.00;97727.06;5091055;28;20028;-62
2023/10/20 08:36:50;;;;;;;10.93;9.23;;;;;;;13.63;100.00;97732.44;5090971;28;20031;-63
2023/10/20 08:39:20;;;;;;;14.65;13.25;;;;;;;13.57;100.00;97727.88;5072814;28;20047;-62
2023/10/20 08:41:46;;;;;;;14.43;13.05;;;;;;;13.60;100.00;97724.81;5074312;28;20024;-62
2023/10/20 08:44:17;;;;;;;14.95;13.65;;;;;;;13.51;100.00;97712.63;5090687;28;20024;-62
2023/10/20 08:46:42;;;;;;;13.40;12.20;;;;;;;13.55;100.00;97713.88;5091309;28;20016;-62
2023/10/20 08:49:08;;;;;;;13.38;12.27;;;;;;;13.56;100.00;97718.19;5091320;28;20042;-62
2023/10/20 08:51:37;;;;;;;12.63;11.32;;;;;;;13.55;100.00;97720.03;5091016;28;20048;-62
2023/10/20 08:54:07;;;;;;;14.88;13.57;;;;;;;13.54;100.00;97717.56;5091680;28;20703;-62
2023/10/20 08:56:33;;;;;;;14.02;12.52;;;;;;;13.52;100.00;97717.75;5073255;28;20032;-62
2023/10/20 08:58:58;;;;;;;13.43;12.15;;;;;;;13.51;100.00;97713.44;5091481;28;20100;-63
2023/10/20 09:01:24;;;;;;;15.90;13.60;;;;;;;13.47;100.00;97701.50;5091313;28;20455;-62
2023/10/20 09:03:52;;;;;;;18.25;16.25;;;;;;;13.49;100.00;97706.63;5091753;28;20545;-62
2023/10/20 09:06:17;;;;;;;10.70;7.45;;;;;;;13.53;100.00;97710.56;5069161;28;20067;-63
2023/10/20 09:08:47;;;;;;;9.65;8.75;;;;;;;13.46;100.00;97707.03;5071187;28;20099;-62
2023/10/20 09:11:12;;;;;;;10.70;9.60;;;;;;;13.48;100.00;97710.34;5070032;28;20020;-63
2023/10/20 09:13:41;;;;;;;8.77;7.93;;;;;;;13.47;100.00;97714.88;5071465;28;20373;-62
2023/10/20 09:16:08;;;;;;;28.77;24.67;;;;;;;13.42;100.00;97719.94;5071226;28;20508;-62
2023/10/20 09:18:50;;;;;;;5.93;5.07;;;;;;;13.53;100.00;97715.91;5069869;28;20029;-62
2023/10/20 09:21:18;;;;;;;9.13;8.00;;;;;;;13.47;100.00;97706.00;5069305;28;20050;-63
2023/10/20 09:24:02;;;;;;;11.52;9.57;;;;;;;13.51;100.00;97701.94;5071573;28;20033;-62
2023/10/20 09:26:30;;;;;;;11.15;10.15;;;;;;;13.45;100.00;97686.69;5071250;28;20036;-62
2023/10/20 09:28:56;;;;;;;11.48;10.35;;;;;;;13.44;100.00;97690.38;5069755;28;20454;-62
2023/10/20 09:31:23;;;;;;;8.32;7.53;;;;;;;13.36;100.00;97694.84;5070344;28;20067;-62
2023/10/20 09:33:49;;;;;;;9.48;6.57;;;;;;;13.31;100.00;97696.44;5069656;28;20063;-62
2023/10/20 09:36:15;;;;;;;7.30;6.20;;;;;;;13.35;100.00;97705.69;5072224;28;20024;-63
2023/10/20 09:38:49;;;;;;;6.93;5.72;;;;;;;13.26;100.00;97709.50;5074770;28;20068;-63
2023/10/20 09:41:18;;;;;;;6.75;5.75;;;;;;;13.22;100.00;97709.03;5074727;28;20043;-62
2023/10/20 09:44:05;;;;;;;6.23;5.07;;;;;;;13.31;100.00;97709.78;5074356;28;20033;-62
2023/10/20 09:46:33;;;;;;;5.50;4.82;;;;;;;13.25;100.00;97714.03;5074752;28;20043;-62
2023/10/20 09:49:16;;;;;;;11.02;3.80;;;;;;;13.36;100.00;97707.38;5074919;28;20025;-63
2023/10/20 09:51:46;;;;;;;5.30;4.72;;;;;;;13.28;100.00;97708.31;5074178;28;20380;-62
2023/10/20 09:54:17;;;;;;;5.15;4.50;;;;;;;13.31;100.00;97699.09;5074259;28;20063;-62
2023/10/20 09:56:44;;;;;;;6.00;3.58;;;;;;;13.38;100.00;97699.97;5074428;28;20033;-62
2023/10/20 09:59:16;;;;;;;4.43;4.03;;;;;;;13.28;100.00;97696.81;5073253;28;20086;-63
2023/10/20 10:01:43;;;;;;;4.50;4.10;;;;;;;13.23;100.00;97709.88;5072991;28;20021;-62
2023/10/20 10:04:10;;;;;;;4.40;4.05;;;;;;;13.23;100.00;97704.53;5072665;28;20039;-61
2023/10/20 10:06:38;;;;;;;5.03;4.53;;;;;;;13.24;100.00;97700.88;5093886;28;20051;-62
2023/10/20 10:09:04;;;;;;;4.53;4.20;;;;;;;13.22;100.00;97695.69;5076014;28;20035;-62
2023/10/20 10:11:31;;;;;;;7.05;4.00;;;;;;;13.22;100.00;97687.69;5094593;28;20048;-62
2023/10/20 10:14:02;;;;;;;4.28;3.80;;;;;;;13.26;100.00;97704.19;5076301;28;20031;-62
2023/10/20 10:16:28;;;;;;;4.35;3.80;;;;;;;13.26;100.00;97688.97;5094432;28;20047;-62
2023/10/20 10:18:57;;;;;;;3.65;3.33;;;;;;;13.21;100.00;97671.84;5094279;28;20055;-63
2023/10/20 10:21:27;;;;;;;3.97;3.67;;;;;;;13.20;100.00;97687.06;5093784;28;20043;-63
2023/10/20 10:24:16;;;;;;;4.38;3.80;;;;;;;13.26;100.00;97682.81;5076122;28;20028;-63
2023/10/20 10:26:57;;;;;;;4.78;3.80;;;;;;;13.26;100.00;97683.66;5094206;28;20027;-63
2023/10/20 10:29:46;;;;;;;6.03;3.17;;;;;;;13.33;100.00;97684.53;5061541;28;20024;-63
2023/10/20 10:32:14;;;;;;;10.85;9.88;;;;;;;13.33;100.00;97684.53;5082336;28;20028;-63
2023/10/20 10:34:41;;;;;;;4.68;3.83;;;;;;;13.34;100.00;97670.16;5083167;28;20474;-63
2023/10/20 10:37:08;;;;;;;5.82;5.32;;;;;;;13.31;100.00;97667.06;5091626;28;20173;-63
2023/10/20 10:39:36;;;;;;;6.38;5.15;;;;;;;13.33;100.00;97670.38;5085182;28;20119;-63
2023/10/20 10:42:05;;;;;;;6.15;5.30;;;;;;;13.37;100.00;97669.78;5055985;28;20020;-62
2023/10/20 10:44:32;;;;;;;;;;;;;;;13.47;100.00;97658.78;5068058;28;20506;-63
2023/10/20 10:46:57;;;;;;;6.75;5.07;;;;;;;13.48;100.00;97654.28;5091256;28;19912;-63
2023/10/20 10:49:23;;;;;;;5.50;4.75;;;;;;;13.45;100.00;97649.31;5093596;28;20024;-63
2023/10/20 10:51:50;;;;;;;7.68;7.00;;;;;;;13.33;100.00;97636.50;5077424;28;20099;-63
2023/10/20 10:54:17;;;;;;;5.35;4.90;;;;;;;13.34;100.00;97635.47;5075629;28;20032;-62
2023/10/20 10:56:42;;;;;;;6.15;5.65;;;;;;;13.36;100.00;97638.78;5091603;28;20541;-63
2023/10/20 10:59:11;;;;;;;5.30;4.78;;;;;;;13.31;100.00;97632.38;5091160;28;20062;-62
2023/10/20 11:01:40;;;;;;;4.80;4.40;;;;;;;13.33;100.00;97617.00;5092967;28;20023;-62
2023/10/20 11:04:10;;;;;;;4.80;4.40;;;;;;;13.45;100.00;97620.78;5081945;28;20109;-62
2023/10/20 11:06:38;;;;;;;;;;;;;;;13.50;100.00;97615.69;5077588;28;20041;-62
2023/10/20 11:09:10;;;;;;;5.07;3.58;;;;;;;13.49;100.00;97606.00;5068690;28;20359;-62
2023/10/20 11:11:45;;;;;;;5.15;4.65;;;;;;;13.46;100.00;97613.59;5089614;28;20497;-63
2023/10/20 11:14:11;;;;;;;5.72;5.18;;;;;;;13.45;100.00;97601.28;5092545;28;20028;-62
2023/10/20 11:16:36;;;;;;;6.55;5.43;;;;;;;13.52;100.00;97610.13;5063439;28;20027;-62
2023/10/20 11:19:02;;;;;;;6.25;5.75;;;;;;;13.52;100.00;97596.78;5072742;28;20025;-63
2023/10/20 11:21:28;;;;;;;5.70;4.68;;;;;;;13.61;100.00;97584.91;5072350;28;20071;-62
2023/10/20 11:23:57;;;;;;;6.28;5.68;;;;;;;13.53;100.00;97585.91;5071334;28;20077;-62
2023/10/20 11:26:24;;;;;;;6.05;5.45;;;;;;;13.57;100.00;97589.84;5071512;28;20082;-62
2023/10/20 11:28:50;;;;;;;6.75;5.05;;;;;;;13.55;100.00;97581.19;5093235;28;20475;-62
2023/10/20 11:31:16;;;;;;;5.85;5.45;;;;;;;13.57;100.00;97586.34;5092156;28;20031;-62
2023/10/20 11:33:41;;;;;;;7.47;6.78;;;;;;;13.56;100.00;97582.84;5093098;28;20028;-62
2023/10/20 11:36:07;;;;;;;9.20;7.38;;;;;;;13.60;100.00;97578.75;5092600;28;20081;-62
2023/10/20 11:38:32;;;;;;;6.60;6.10;;;;;;;13.61;100.00;97572.38;5074846;28;20051;-62
2023/10/20 11:40:59;;;;;;;6.70;6.15;;;;;;;13.67;100.00;97576.13;5089405;28;20024;-62
2023/10/20 11:43:25;;;;;;;5.70;5.25;;;;;;;13.75;100.00;97583.16;5088407;28;20559;-62
2023/10/20 11:45:50;;;;;;;6.00;5.50;;;;;;;13.74;100.00;97571.66;5090685;28;20110;-62
2023/10/20 11:48:16;;;;;;;6.10;5.53;;;;;;;13.75;100.00;97572.47;5074555;28;20053;-62
2023/10/20 11:50:41;;;;;;;7.88;5.15;;;;;;;13.76;100.00;97566.91;5073914;28;20108;-62